Time;durP1;ratioP1;P1;durP2;ratioP2;P2;SDS_P1;SDS_P2;PMS_P1;PMS_P2;Temp;Humidity;BMP_temperature;BMP_pressure;BME280_temperature;BME280_humidity;BME280_pressure;Samples;Min_cycle;Max_cycle;Signal;HPM_P1;HPM_P2
2022/09/11 00:01:40;;;;;;;4.55;3.50;;;;;;;;;;601609;239;26677;-66
2022/09/11 00:04:18;;;;;;;5.32;3.50;;;;;;;;;;601542;234;26658;-66
2022/09/11 00:06:53;;;;;;;2.95;2.75;;;;;;;;;;601351;239;26604;-66
2022/09/11 00:09:28;;;;;;;3.20;2.83;;;;;;;;;;608877;236;26639;-66
2022/09/11 00:12:14;;;;;;;3.42;3.12;;;;;;;;;;608976;236;26634;-66
2022/09/11 00:14:47;;;;;;;3.28;2.97;;;;;;;;;;609805;236;26836;-66
2022/09/11 00:20:00;;;;;;;3.85;3.45;;;;;;;;;;609926;236;26655;-65
2022/09/11 00:22:31;;;;;;;4.82;3.95;;;;;;;;;;609754;236;26633;-65
2022/09/11 00:25:09;;;;;;;4.47;3.78;;;;;;;;;;609933;236;26597;-65
2022/09/11 00:27:47;;;;;;;4.32;3.92;;;;;;;;;;602207;236;26614;-66
2022/09/11 00:30:21;;;;;;;3.60;3.30;;;;;;;;;;601377;239;26571;-65
2022/09/11 00:33:03;;;;;;;;;;;;;;;;;;;;;
2022/09/11 00:35:41;;;;;;;3.37;3.17;;;;;;;;;;601315;239;26819;-65
2022/09/11 00:38:12;;;;;;;4.00;3.55;;;;;;;;;;601323;239;26831;-67
2022/09/11 00:40:55;;;;;;;3.45;3.15;;;;;;;;;;602566;237;26602;-66
2022/09/11 00:43:35;;;;;;;5.53;3.85;;;;;;;;;;602463;233;26617;-66
2022/09/11 00:46:16;;;;;;;3.70;3.40;;;;;;;;;;602243;239;26661;-66
2022/09/11 00:49:02;;;;;;;;;;;;;;;;;;;;;
2022/09/11 00:51:41;;;;;;;3.60;3.30;;;;;;;;;;601903;239;26640;-66
2022/09/11 00:54:13;;;;;;;4.03;3.62;;;;;;;;;;601925;239;26663;-65
2022/09/11 00:56:44;;;;;;;4.30;3.35;;;;;;;;;;601960;239;26616;-65
2022/09/11 00:59:13;;;;;;;3.33;3.05;;;;;;;;;;601663;239;26573;-66
2022/09/11 01:01:42;;;;;;;3.50;3.20;;;;;;;;;;601598;239;26606;-66
2022/09/11 01:04:10;;;;;;;3.72;3.42;;;;;;;;;;609354;236;26855;-66
2022/09/11 01:06:39;;;;;;;3.40;3.10;;;;;;;;;;609925;236;26644;-66
2022/09/11 01:09:08;;;;;;;3.62;3.10;;;;;;;;;;610041;236;26876;-66
2022/09/11 01:11:41;;;;;;;3.45;3.25;;;;;;;;;;609615;236;26647;-66
2022/09/11 01:14:18;;;;;;;5.20;3.10;;;;;;;;;;610078;236;26584;-66
2022/09/11 01:16:52;;;;;;;3.65;3.20;;;;;;;;;;609409;236;26856;-66
2022/09/11 01:19:35;;;;;;;3.62;3.33;;;;;;;;;;612118;235;26678;-66
2022/09/11 01:22:05;;;;;;;4.25;3.25;;;;;;;;;;609736;234;26861;-66
2022/09/11 01:24:36;;;;;;;3.35;3.05;;;;;;;;;;609058;236;27281;-66
2022/09/11 01:27:08;;;;;;;3.97;3.37;;;;;;;;;;609279;236;26574;-66
2022/09/11 01:29:38;;;;;;;3.33;3.08;;;;;;;;;;606408;236;26642;-67
2022/09/11 01:32:21;;;;;;;3.10;2.90;;;;;;;;;;601285;236;26671;-66
2022/09/11 01:34:51;;;;;;;6.12;3.28;;;;;;;;;;601761;236;26646;-69
2022/09/11 01:37:23;;;;;;;3.60;3.30;;;;;;;;;;603252;236;26640;-69
2022/09/11 01:39:50;;;;;;;2.70;2.50;;;;;;;;;;609494;236;26553;-69
2022/09/11 01:42:19;;;;;;;3.15;2.95;;;;;;;;;;608266;236;26874;-69
2022/09/11 01:44:50;;;;;;;4.80;3.10;;;;;;;;;;601239;239;26635;-69
2022/09/11 01:47:18;;;;;;;2.87;2.70;;;;;;;;;;601849;236;26634;-69
2022/09/11 01:49:47;;;;;;;3.60;2.72;;;;;;;;;;609988;236;26621;-69
2022/09/11 01:52:17;;;;;;;3.25;3.05;;;;;;;;;;609418;233;26629;-69
2022/09/11 01:54:46;;;;;;;2.83;2.62;;;;;;;;;;606179;235;26859;-68
2022/09/11 01:57:15;;;;;;;3.10;2.85;;;;;;;;;;610463;235;26543;-68
2022/09/11 01:59:45;;;;;;;4.78;2.80;;;;;;;;;;610679;235;26607;-68
2022/09/11 02:02:14;;;;;;;4.43;2.90;;;;;;;;;;610143;235;26861;-68
2022/09/11 02:04:45;;;;;;;3.15;2.85;;;;;;;;;;603352;235;26550;-69
2022/09/11 02:07:14;;;;;;;3.10;2.58;;;;;;;;;;610954;235;26659;-64
2022/09/11 02:09:44;;;;;;;2.83;2.62;;;;;;;;;;610267;235;26587;-64
2022/09/11 02:12:13;;;;;;;2.97;2.60;;;;;;;;;;606475;235;26617;-64
2022/09/11 02:14:42;;;;;;;2.70;2.50;;;;;;;;;;609627;236;26856;-64
2022/09/11 02:17:14;;;;;;;3.72;2.47;;;;;;;;;;608097;235;26798;-64
2022/09/11 02:19:43;;;;;;;2.97;2.60;;;;;;;;;;601439;239;26650;-64
2022/09/11 02:22:12;;;;;;;3.78;2.83;;;;;;;;;;604002;235;26680;-64
2022/09/11 02:24:40;;;;;;;3.08;2.50;;;;;;;;;;601613;236;26589;-63
2022/09/11 02:27:09;;;;;;;2.80;2.60;;;;;;;;;;605482;236;26617;-63
2022/09/11 02:29:38;;;;;;;2.78;2.58;;;;;;;;;;602278;236;26652;-63
2022/09/11 02:32:10;;;;;;;2.60;2.45;;;;;;;;;;603087;236;26840;-63
2022/09/11 02:34:36;;;;;;;2.78;2.58;;;;;;;;;;610051;236;26638;-64
2022/09/11 02:37:10;;;;;;;2.60;2.40;;;;;;;;;;610240;235;26850;-63
2022/09/11 02:39:46;;;;;;;3.33;2.25;;;;;;;;;;609993;236;26608;-64
2022/09/11 02:42:14;;;;;;;2.33;2.12;;;;;;;;;;610316;235;26831;-63
2022/09/11 02:44:58;;;;;;;2.67;2.47;;;;;;;;;;606254;236;26603;-63
2022/09/11 02:47:31;;;;;;;4.07;2.40;;;;;;;;;;600937;239;26640;-63
2022/09/11 02:50:17;;;;;;;2.60;2.40;;;;;;;;;;600778;239;26637;-63
2022/09/11 02:52:46;;;;;;;2.50;2.33;;;;;;;;;;590478;234;26708;-63
2022/09/11 02:55:15;;;;;;;2.42;2.22;;;;;;;;;;600840;239;26881;-63
2022/09/11 02:57:47;;;;;;;2.92;2.35;;;;;;;;;;601147;239;26604;-63
2022/09/11 03:00:16;;;;;;;2.42;2.33;;;;;;;;;;601048;239;26886;-63
2022/09/11 03:02:44;;;;;;;2.78;2.22;;;;;;;;;;601842;237;26649;-63
2022/09/11 03:05:13;;;;;;;2.22;2.12;;;;;;;;;;605775;234;26919;-63
2022/09/11 03:07:42;;;;;;;1.90;1.80;;;;;;;;;;611278;235;26624;-63
2022/09/11 03:10:11;;;;;;;2.22;2.00;;;;;;;;;;611096;235;26591;-63
2022/09/11 03:12:40;;;;;;;2.28;2.17;;;;;;;;;;610962;235;26646;-63
2022/09/11 03:15:09;;;;;;;2.80;2.53;;;;;;;;;;610660;235;26584;-63
2022/09/11 03:17:39;;;;;;;5.18;3.17;;;;;;;;;;610835;235;26693;-63
2022/09/11 03:20:07;;;;;;;3.05;2.85;;;;;;;;;;610746;234;27226;-63
2022/09/11 03:22:36;;;;;;;3.35;3.05;;;;;;;;;;602152;235;26642;-63
2022/09/11 03:25:05;;;;;;;3.90;3.58;;;;;;;;;;611291;235;26577;-63
2022/09/11 03:27:37;;;;;;;4.05;3.47;;;;;;;;;;606018;235;26641;-63
2022/09/11 03:30:03;;;;;;;3.97;3.28;;;;;;;;;;601517;236;27307;-63
2022/09/11 03:32:32;;;;;;;3.75;3.45;;;;;;;;;;602361;235;26662;-63
2022/09/11 03:35:01;;;;;;;3.37;3.17;;;;;;;;;;610119;236;27316;-63
2022/09/11 03:37:30;;;;;;;3.40;3.10;;;;;;;;;;610290;236;26589;-63
2022/09/11 03:40:00;;;;;;;3.70;3.40;;;;;;;;;;607666;236;26859;-63
2022/09/11 03:42:27;;;;;;;3.37;3.10;;;;;;;;;;609022;235;26665;-63
2022/09/11 03:44:56;;;;;;;4.65;4.15;;;;;;;;;;609944;235;26632;-63
2022/09/11 03:47:25;;;;;;;4.20;3.90;;;;;;;;;;606588;235;26599;-63
2022/09/11 03:49:54;;;;;;;5.12;4.62;;;;;;;;;;603233;236;26678;-63
2022/09/11 03:52:23;;;;;;;5.05;4.53;;;;;;;;;;609565;235;26642;-64
2022/09/11 03:54:52;;;;;;;4.03;3.72;;;;;;;;;;605073;236;26586;-63
2022/09/11 03:57:21;;;;;;;4.20;3.90;;;;;;;;;;601534;236;26883;-63
2022/09/11 03:59:49;;;;;;;4.93;4.53;;;;;;;;;;602760;236;26602;-63
2022/09/11 04:02:18;;;;;;;4.18;3.78;;;;;;;;;;609408;236;26854;-64
2022/09/11 04:04:47;;;;;;;4.37;3.97;;;;;;;;;;601314;239;26638;-64
2022/09/11 04:07:16;;;;;;;3.72;3.42;;;;;;;;;;603515;236;26636;-62
2022/09/11 04:09:45;;;;;;;5.32;4.28;;;;;;;;;;609069;235;26641;-63
2022/09/11 04:12:14;;;;;;;3.85;3.65;;;;;;;;;;604231;236;26649;-64
2022/09/11 04:14:42;;;;;;;4.25;3.95;;;;;;;;;;610620;233;26569;-63
2022/09/11 04:17:11;;;;;;;4.10;3.80;;;;;;;;;;611375;235;26627;-64
2022/09/11 04:19:40;;;;;;;4.87;4.40;;;;;;;;;;610892;235;26913;-63
2022/09/11 04:22:09;;;;;;;4.07;3.78;;;;;;;;;;610241;234;26664;-63
2022/09/11 04:24:38;;;;;;;4.25;3.92;;;;;;;;;;610672;235;26825;-64
2022/09/11 04:27:07;;;;;;;3.92;3.62;;;;;;;;;;610498;235;26588;-64
2022/09/11 04:29:35;;;;;;;4.22;3.80;;;;;;;;;;609089;235;26583;-64
2022/09/11 04:32:04;;;;;;;4.70;4.30;;;;;;;;;;603600;235;26603;-63
2022/09/11 04:34:33;;;;;;;5.62;5.12;;;;;;;;;;614759;234;26570;-64
2022/09/11 04:37:02;;;;;;;4.82;4.50;;;;;;;;;;610432;235;26833;-64
2022/09/11 04:39:31;;;;;;;5.75;5.25;;;;;;;;;;612159;235;26588;-64
2022/09/11 04:42:01;;;;;;;5.70;5.20;;;;;;;;;;611573;235;26621;-64
2022/09/11 04:44:29;;;;;;;6.70;6.07;;;;;;;;;;610260;236;26585;-64
2022/09/11 04:46:58;;;;;;;6.10;5.50;;;;;;;;;;610151;236;26584;-64
2022/09/11 04:49:26;;;;;;;5.45;5.00;;;;;;;;;;607558;235;26861;-64
2022/09/11 04:51:56;;;;;;;5.35;4.18;;;;;;;;;;601322;239;26661;-64
2022/09/11 04:54:24;;;;;;;4.80;4.40;;;;;;;;;;606171;236;26855;-65
2022/09/11 04:56:53;;;;;;;5.25;4.85;;;;;;;;;;609909;236;26661;-65
2022/09/11 04:59:22;;;;;;;4.57;4.28;;;;;;;;;;598466;240;26665;-65
2022/09/11 05:01:51;;;;;;;4.85;4.35;;;;;;;;;;609864;236;26657;-65
2022/09/11 05:04:19;;;;;;;5.12;4.62;;;;;;;;;;609835;236;26596;-65
2022/09/11 05:06:48;;;;;;;4.82;4.43;;;;;;;;;;604263;236;26832;-65
2022/09/11 05:09:17;;;;;;;4.90;4.40;;;;;;;;;;601404;239;26621;-65
2022/09/11 05:11:46;;;;;;;4.80;4.40;;;;;;;;;;601430;239;26645;-65
2022/09/11 05:14:15;;;;;;;6.53;5.00;;;;;;;;;;601416;239;26598;-64
2022/09/11 05:16:44;;;;;;;6.03;5.43;;;;;;;;;;601301;239;26649;-65
2022/09/11 05:19:12;;;;;;;6.45;5.85;;;;;;;;;;601275;238;26645;-65
2022/09/11 05:21:41;;;;;;;4.93;4.53;;;;;;;;;;601259;239;26620;-65
2022/09/11 05:24:10;;;;;;;8.48;7.50;;;;;;;;;;601331;239;26873;-64
2022/09/11 05:26:39;;;;;;;6.40;5.80;;;;;;;;;;602320;237;26621;-64
2022/09/11 05:29:09;;;;;;;7.57;6.87;;;;;;;;;;602584;239;26845;-64
2022/09/11 05:31:38;;;;;;;10.77;8.93;;;;;;;;;;602163;239;26665;-64
2022/09/11 05:34:06;;;;;;;11.05;9.68;;;;;;;;;;602175;239;26964;-64
2022/09/11 05:36:35;;;;;;;10.32;8.88;;;;;;;;;;601874;239;26595;-64
2022/09/11 05:39:04;;;;;;;9.43;8.23;;;;;;;;;;601663;239;26955;-65
2022/09/11 05:41:33;;;;;;;9.63;8.38;;;;;;;;;;601645;239;26618;-64
2022/09/11 05:44:02;;;;;;;9.10;8.18;;;;;;;;;;609927;236;26587;-65
2022/09/11 05:46:31;;;;;;;8.10;7.40;;;;;;;;;;610151;236;26640;-64
2022/09/11 05:48:59;;;;;;;8.10;7.30;;;;;;;;;;610167;236;26875;-65
2022/09/11 05:51:28;;;;;;;10.70;9.55;;;;;;;;;;610100;235;26682;-64
2022/09/11 05:53:57;;;;;;;9.50;8.45;;;;;;;;;;610184;236;26853;-64
2022/09/11 05:56:27;;;;;;;8.93;8.02;;;;;;;;;;604234;235;26648;-65
2022/09/11 05:58:56;;;;;;;7.47;6.72;;;;;;;;;;606591;236;26821;-64
2022/09/11 06:01:24;;;;;;;8.32;7.43;;;;;;;;;;608634;236;26600;-64
2022/09/11 06:03:53;;;;;;;7.78;6.97;;;;;;;;;;609627;236;26630;-64
2022/09/11 06:06:22;;;;;;;8.82;7.93;;;;;;;;;;611941;235;26616;-64
2022/09/11 06:08:51;;;;;;;10.13;9.07;;;;;;;;;;603389;236;26613;-64
2022/09/11 06:11:19;;;;;;;9.27;8.25;;;;;;;;;;605331;235;26824;-64
2022/09/11 06:13:48;;;;;;;8.80;7.93;;;;;;;;;;610199;235;26644;-64
2022/09/11 06:16:19;;;;;;;7.95;7.20;;;;;;;;;;605070;236;26843;-64
2022/09/11 06:18:48;;;;;;;9.80;8.82;;;;;;;;;;601368;239;26627;-64
2022/09/11 06:21:19;;;;;;;9.55;8.55;;;;;;;;;;601258;239;26631;-64
2022/09/11 06:23:46;;;;;;;8.40;7.43;;;;;;;;;;601248;239;26855;-64
2022/09/11 06:26:14;;;;;;;7.57;6.60;;;;;;;;;;601340;239;26630;-64
2022/09/11 06:28:43;;;;;;;8.57;7.78;;;;;;;;;;607386;236;26645;-64
2022/09/11 06:31:15;;;;;;;9.57;8.52;;;;;;;;;;610241;236;26590;-64
2022/09/11 06:33:41;;;;;;;11.32;9.57;;;;;;;;;;609927;236;26636;-64
2022/09/11 06:36:10;;;;;;;10.63;9.52;;;;;;;;;;610319;235;26993;-64
2022/09/11 06:38:39;;;;;;;12.05;10.75;;;;;;;;;;611428;233;26595;-63
2022/09/11 06:41:10;;;;;;;9.98;8.98;;;;;;;;;;611446;235;26954;-64
2022/09/11 06:43:37;;;;;;;9.98;8.98;;;;;;;;;;610970;235;26557;-63
2022/09/11 06:46:06;;;;;;;8.80;6.93;;;;;;;;;;610537;234;26823;-63
2022/09/11 06:48:35;;;;;;;8.98;8.00;;;;;;;;;;610781;235;26575;-64
2022/09/11 06:51:04;;;;;;;8.63;7.82;;;;;;;;;;610729;235;26884;-64
2022/09/11 06:53:33;;;;;;;7.75;7.05;;;;;;;;;;610813;235;26612;-64
2022/09/11 06:56:02;;;;;;;8.75;7.85;;;;;;;;;;610604;235;27260;-64
2022/09/11 06:58:31;;;;;;;9.43;8.43;;;;;;;;;;610542;236;26585;-64
2022/09/11 07:01:02;;;;;;;9.07;8.18;;;;;;;;;;610491;235;26788;-64
2022/09/11 07:03:30;;;;;;;8.95;8.05;;;;;;;;;;610457;236;26959;-64
2022/09/11 07:05:59;;;;;;;7.62;6.93;;;;;;;;;;610140;235;26633;-64
2022/09/11 07:08:28;;;;;;;8.10;7.30;;;;;;;;;;610215;236;26664;-64
2022/09/11 07:10:57;;;;;;;8.45;7.62;;;;;;;;;;610154;236;26946;-64
2022/09/11 07:13:26;;;;;;;7.62;6.93;;;;;;;;;;609755;236;26685;-64
2022/09/11 07:15:58;;;;;;;6.57;5.97;;;;;;;;;;609748;236;27157;-64
2022/09/11 07:18:35;;;;;;;7.65;6.90;;;;;;;;;;609917;236;26641;-64
2022/09/11 07:21:05;;;;;;;7.80;7.00;;;;;;;;;;609837;235;26593;-64
2022/09/11 07:23:33;;;;;;;7.62;6.93;;;;;;;;;;609721;236;26599;-64
2022/09/11 07:26:03;;;;;;;8.00;7.20;;;;;;;;;;609852;236;26589;-64
2022/09/11 07:28:32;;;;;;;8.73;7.82;;;;;;;;;;609813;236;26552;-64
2022/09/11 07:31:03;;;;;;;7.20;6.53;;;;;;;;;;609823;236;26580;-64
2022/09/11 07:33:32;;;;;;;9.00;8.10;;;;;;;;;;609837;236;26602;-64
2022/09/11 07:36:01;;;;;;;7.50;6.80;;;;;;;;;;609820;235;26581;-64
2022/09/11 07:38:30;;;;;;;8.57;7.78;;;;;;;;;;609119;236;26603;-64
2022/09/11 07:40:59;;;;;;;10.07;8.05;;;;;;;;;;609795;235;26593;-64
2022/09/11 07:43:29;;;;;;;8.52;7.62;;;;;;;;;;610174;236;26855;-68
2022/09/11 07:45:57;;;;;;;9.32;8.43;;;;;;;;;;590924;240;26615;-68
2022/09/11 07:48:27;;;;;;;9.23;8.32;;;;;;;;;;597653;239;26567;-69
2022/09/11 07:50:56;;;;;;;8.75;7.90;;;;;;;;;;600711;238;26626;-67
2022/09/11 07:53:24;;;;;;;9.18;8.13;;;;;;;;;;599100;239;26676;-67
2022/09/11 07:55:54;;;;;;;9.48;7.87;;;;;;;;;;599210;234;26880;-67
2022/09/11 07:58:23;;;;;;;8.93;7.78;;;;;;;;;;597466;239;26677;-68
2022/09/11 08:00:51;;;;;;;8.93;7.72;;;;;;;;;;594667;239;26837;-67
2022/09/11 08:03:20;;;;;;;8.93;8.02;;;;;;;;;;591822;239;26639;-67
2022/09/11 08:05:49;;;;;;;8.35;7.55;;;;;;;;;;593218;239;26625;-68
2022/09/11 08:08:17;;;;;;;7.55;6.85;;;;;;;;;;596279;239;26669;-68
2022/09/11 08:10:46;;;;;;;7.37;6.68;;;;;;;;;;605687;235;26577;-68
2022/09/11 08:13:15;;;;;;;7.62;6.82;;;;;;;;;;607527;236;26843;-68
2022/09/11 08:15:45;;;;;;;8.75;6.55;;;;;;;;;;603115;235;26633;-68
2022/09/11 08:18:14;;;;;;;14.95;6.57;;;;;;;;;;607601;236;26583;-69
2022/09/11 08:20:43;;;;;;;6.68;6.07;;;;;;;;;;604014;236;26625;-68
2022/09/11 08:23:11;;;;;;;8.25;5.97;;;;;;;;;;607762;235;26614;-68
2022/09/11 08:25:40;;;;;;;7.57;6.70;;;;;;;;;;606111;236;26835;-68
2022/09/11 08:28:10;;;;;;;6.40;5.90;;;;;;;;;;601328;236;26677;-68
2022/09/11 08:30:38;;;;;;;8.43;7.28;;;;;;;;;;607197;235;26831;-69
2022/09/11 08:33:08;;;;;;;8.70;5.97;;;;;;;;;;610614;235;26888;-68
2022/09/11 08:35:37;;;;;;;6.87;6.15;;;;;;;;;;609592;235;26628;-68
2022/09/11 08:38:05;;;;;;;6.72;6.07;;;;;;;;;;609199;236;26550;-68
2022/09/11 08:40:34;;;;;;;8.50;6.70;;;;;;;;;;610139;236;26846;-68
2022/09/11 08:43:03;;;;;;;7.70;6.95;;;;;;;;;;610349;235;26655;-68
2022/09/11 08:45:33;;;;;;;8.07;6.43;;;;;;;;;;609941;235;26847;-68
2022/09/11 08:48:01;;;;;;;7.25;6.50;;;;;;;;;;606848;235;26655;-68
2022/09/11 08:50:33;;;;;;;7.10;6.40;;;;;;;;;;606516;232;27024;-67
2022/09/11 08:53:02;;;;;;;7.10;6.47;;;;;;;;;;606971;235;26613;-68
2022/09/11 08:55:32;;;;;;;7.28;6.57;;;;;;;;;;606248;236;26848;-67
2022/09/11 08:58:20;;;;;;;6.28;5.68;;;;;;;;;;606141;235;26662;-67
2022/09/11 09:01:03;;;;;;;7.60;6.53;;;;;;;;;;600387;233;26632;-67
2022/09/11 09:03:33;;;;;;;7.70;6.90;;;;;;;;;;606600;235;26986;-67
2022/09/11 09:06:12;;;;;;;7.85;7.07;;;;;;;;;;606356;235;26630;-67
2022/09/11 09:08:43;;;;;;;7.43;6.82;;;;;;;;;;607240;234;26935;-67
2022/09/11 09:11:14;;;;;;;6.18;5.68;;;;;;;;;;607399;235;26971;-66
2022/09/11 09:13:46;;;;;;;7.18;6.47;;;;;;;;;;606344;235;26813;-66
2022/09/11 09:16:34;;;;;;;8.85;7.43;;;;;;;;;;606196;235;26588;-67
2022/09/11 09:19:05;;;;;;;8.55;6.93;;;;;;;;;;607716;235;26588;-65
2022/09/11 09:21:34;;;;;;;8.80;7.00;;;;;;;;;;606352;235;26632;-65
2022/09/11 09:24:03;;;;;;;7.00;6.28;;;;;;;;;;604772;234;26793;-65
2022/09/11 09:26:32;;;;;;;7.00;6.30;;;;;;;;;;605661;236;26643;-65
2022/09/11 09:29:01;;;;;;;8.43;6.32;;;;;;;;;;607504;235;26592;-67
2022/09/11 09:31:29;;;;;;;8.70;6.50;;;;;;;;;;605597;236;26820;-66
2022/09/11 09:34:00;;;;;;;9.93;7.00;;;;;;;;;;608057;234;26643;-66
2022/09/11 09:36:28;;;;;;;9.45;6.55;;;;;;;;;;605435;235;26638;-66
2022/09/11 09:38:57;;;;;;;6.90;6.07;;;;;;;;;;607031;235;26625;-66
2022/09/11 09:41:30;;;;;;;8.13;7.28;;;;;;;;;;606898;235;26669;-66
2022/09/11 09:44:09;;;;;;;6.82;6.18;;;;;;;;;;605941;235;26858;-65
2022/09/11 09:46:40;;;;;;;6.20;5.62;;;;;;;;;;604662;236;26628;-65
2022/09/11 09:49:09;;;;;;;6.68;6.00;;;;;;;;;;605730;236;26640;-66
2022/09/11 09:51:39;;;;;;;6.80;6.03;;;;;;;;;;605975;235;26617;-66
2022/09/11 09:54:07;;;;;;;7.62;6.47;;;;;;;;;;607727;234;26963;-66
2022/09/11 09:56:36;;;;;;;8.05;6.05;;;;;;;;;;605127;236;26639;-65
2022/09/11 09:59:21;;;;;;;7.05;6.35;;;;;;;;;;605946;236;26671;-61
2022/09/11 10:01:50;;;;;;;6.75;6.15;;;;;;;;;;606233;235;26952;-61
2022/09/11 10:04:20;;;;;;;6.90;6.30;;;;;;;;;;607812;235;26636;-61
2022/09/11 10:06:50;;;;;;;7.00;6.40;;;;;;;;;;607807;230;26622;-61
2022/09/11 10:09:25;;;;;;;7.00;6.37;;;;;;;;;;606640;235;26647;-61
2022/09/11 10:11:55;;;;;;;6.78;6.15;;;;;;;;;;607134;233;26658;-61
2022/09/11 10:14:25;;;;;;;6.57;5.95;;;;;;;;;;606461;235;26997;-61
2022/09/11 10:16:53;;;;;;;6.87;6.18;;;;;;;;;;608633;234;26663;-61
2022/09/11 10:19:23;;;;;;;6.60;6.00;;;;;;;;;;611893;234;26820;-61
2022/09/11 10:21:52;;;;;;;7.97;6.25;;;;;;;;;;603950;235;26621;-61
2022/09/11 10:24:21;;;;;;;6.60;5.97;;;;;;;;;;606970;235;26581;-61
2022/09/11 10:26:50;;;;;;;7.30;5.70;;;;;;;;;;610563;235;26548;-61
2022/09/11 10:29:18;;;;;;;6.62;6.03;;;;;;;;;;605315;235;26838;-60
2022/09/11 10:31:48;;;;;;;7.00;6.30;;;;;;;;;;606091;236;26604;-61
2022/09/11 10:34:19;;;;;;;6.20;5.62;;;;;;;;;;605858;235;26573;-61
2022/09/11 10:36:51;;;;;;;5.97;5.47;;;;;;;;;;608433;236;26583;-61
2022/09/11 10:39:20;;;;;;;6.18;5.57;;;;;;;;;;605609;236;26596;-63
2022/09/11 10:41:49;;;;;;;7.00;6.37;;;;;;;;;;609635;235;26660;-62
2022/09/11 10:44:19;;;;;;;87.05;21.95;;;;;;;;;;605498;236;26551;-62
2022/09/11 10:46:47;;;;;;;103.68;29.63;;;;;;;;;;606180;231;26872;-61
2022/09/11 10:49:16;;;;;;;130.90;35.92;;;;;;;;;;603906;235;26628;-61
2022/09/11 10:52:02;;;;;;;98.75;29.08;;;;;;;;;;602223;236;26623;-62
2022/09/11 10:54:32;;;;;;;87.60;25.02;;;;;;;;;;602653;235;26650;-62
2022/09/11 10:57:04;;;;;;;87.28;23.35;;;;;;;;;;607257;235;26594;-63
2022/09/11 10:59:45;;;;;;;83.45;23.42;;;;;;;;;;605540;236;26653;-63
2022/09/11 11:02:15;;;;;;;74.60;21.67;;;;;;;;;;598526;238;26619;-61
2022/09/11 11:04:44;;;;;;;70.20;21.25;;;;;;;;;;601452;236;26647;-61
2022/09/11 11:07:13;;;;;;;65.40;20.08;;;;;;;;;;603028;236;26867;-62
2022/09/11 11:09:56;;;;;;;62.33;20.90;;;;;;;;;;600967;236;26652;-61
2022/09/11 11:12:30;;;;;;;40.90;17.00;;;;;;;;;;608463;236;26657;-61
2022/09/11 11:15:01;;;;;;;49.22;17.67;;;;;;;;;;603346;236;26882;-61
2022/09/11 11:17:32;;;;;;;42.45;15.90;;;;;;;;;;607572;235;26677;-61
2022/09/11 11:20:06;;;;;;;49.05;16.87;;;;;;;;;;602992;236;26864;-61
2022/09/11 11:22:38;;;;;;;38.42;15.68;;;;;;;;;;606886;236;26685;-61
2022/09/11 11:25:10;;;;;;;42.08;15.93;;;;;;;;;;607492;235;26654;-62
2022/09/11 11:27:45;;;;;;;70.62;23.08;;;;;;;;;;605534;235;26576;-61
2022/09/11 11:30:16;;;;;;;1605.78;172.68;;;;;;;;;;606173;235;26621;-61
2022/09/11 11:32:47;;;;;;;1999.90;467.00;;;;;;;;;;613360;233;26946;-62
2022/09/11 11:35:16;;;;;;;1999.90;227.93;;;;;;;;;;612902;233;26599;-62
2022/09/11 11:37:45;;;;;;;72.30;35.47;;;;;;;;;;613451;233;26653;-60
2022/09/11 11:40:30;;;;;;;52.03;27.37;;;;;;;;;;602462;238;26599;-61
2022/09/11 11:43:00;;;;;;;68.20;28.40;;;;;;;;;;592925;242;26972;-61
2022/09/11 11:45:31;;;;;;;32.78;19.27;;;;;;;;;;604874;237;26663;-62
2022/09/11 11:48:00;;;;;;;34.53;19.92;;;;;;;;;;604405;238;26603;-63
2022/09/11 11:50:31;;;;;;;22.90;14.35;;;;;;;;;;603941;238;26590;-62
2022/09/11 11:53:00;;;;;;;15.75;9.82;;;;;;;;;;604620;237;26847;-62
2022/09/11 11:55:32;;;;;;;18.60;11.20;;;;;;;;;;604742;238;26575;-62
2022/09/11 11:58:03;;;;;;;14.10;9.35;;;;;;;;;;604283;238;26583;-62
2022/09/11 12:00:34;;;;;;;12.73;8.40;;;;;;;;;;603354;238;26583;-62
2022/09/11 12:03:04;;;;;;;9.63;6.20;;;;;;;;;;602605;238;26811;-63
2022/09/11 12:05:33;;;;;;;11.02;8.48;;;;;;;;;;603052;238;26938;-62
2022/09/11 12:08:01;;;;;;;11.32;7.75;;;;;;;;;;602941;237;26667;-63
2022/09/11 12:10:33;;;;;;;13.90;7.50;;;;;;;;;;603741;238;26582;-63
2022/09/11 12:13:02;;;;;;;8.80;7.10;;;;;;;;;;603008;238;26877;-62
2022/09/11 12:15:32;;;;;;;8.10;6.50;;;;;;;;;;614058;234;26782;-62
2022/09/11 12:18:00;;;;;;;7.85;5.35;;;;;;;;;;612604;234;26599;-62
2022/09/11 12:20:29;;;;;;;11.40;6.72;;;;;;;;;;615333;233;27162;-63
2022/09/11 12:22:58;;;;;;;9.65;6.80;;;;;;;;;;614616;233;26553;-62
2022/09/11 12:25:42;;;;;;;6.40;5.75;;;;;;;;;;612418;234;26632;-63
2022/09/11 12:28:17;;;;;;;8.60;6.47;;;;;;;;;;612412;234;26622;-63
2022/09/11 12:31:06;;;;;;;7.87;5.82;;;;;;;;;;615494;233;26575;-63
2022/09/11 12:33:49;;;;;;;7.30;5.90;;;;;;;;;;613082;234;26624;-63
2022/09/11 12:36:34;;;;;;;7.65;5.87;;;;;;;;;;617003;230;26607;-61
2022/09/11 12:39:02;;;;;;;5.87;5.28;;;;;;;;;;611956;233;26629;-64
2022/09/11 12:41:32;;;;;;;7.57;5.93;;;;;;;;;;613877;233;26568;-65
2022/09/11 12:44:00;;;;;;;6.53;5.93;;;;;;;;;;613271;234;26556;-64
2022/09/11 12:46:43;;;;;;;6.37;5.72;;;;;;;;;;613987;233;26663;-67
2022/09/11 12:49:14;;;;;;;6.15;5.62;;;;;;;;;;605503;233;26628;-64
2022/09/11 12:51:42;;;;;;;5.95;5.35;;;;;;;;;;615654;233;26596;-65
2022/09/11 12:54:11;;;;;;;6.43;5.50;;;;;;;;;;614519;232;26843;-65
2022/09/11 12:56:43;;;;;;;6.00;5.40;;;;;;;;;;612515;234;26793;-65
2022/09/11 12:59:12;;;;;;;6.55;5.32;;;;;;;;;;613036;234;26795;-65
2022/09/11 13:01:41;;;;;;;6.05;5.43;;;;;;;;;;613112;233;26588;-65
2022/09/11 13:04:20;;;;;;;5.82;5.30;;;;;;;;;;615658;232;26635;-65
2022/09/11 13:06:49;;;;;;;6.47;4.82;;;;;;;;;;612906;233;26576;-64
2022/09/11 13:09:17;;;;;;;5.65;5.15;;;;;;;;;;613077;233;26797;-65
2022/09/11 13:11:49;;;;;;;5.55;5.05;;;;;;;;;;614401;233;26633;-65
2022/09/11 13:14:23;;;;;;;6.00;5.40;;;;;;;;;;614188;234;26614;-65
2022/09/11 13:16:52;;;;;;;5.53;4.93;;;;;;;;;;613432;234;26567;-65
2022/09/11 13:19:22;;;;;;;6.43;4.62;;;;;;;;;;613318;234;26587;-65
2022/09/11 13:21:51;;;;;;;5.78;4.72;;;;;;;;;;612630;234;26640;-65
2022/09/11 13:24:20;;;;;;;5.70;5.20;;;;;;;;;;613034;234;26571;-65
2022/09/11 13:26:54;;;;;;;5.28;4.72;;;;;;;;;;612763;234;26847;-65
2022/09/11 13:29:19;;;;;;;4.57;4.18;;;;;;;;;;612671;234;26656;-65
2022/09/11 13:31:47;;;;;;;4.80;4.43;;;;;;;;;;614234;233;26587;-67
2022/09/11 13:34:15;;;;;;;5.15;4.75;;;;;;;;;;614156;234;26604;-67
2022/09/11 13:36:46;;;;;;;5.32;4.80;;;;;;;;;;615047;233;26715;-67
2022/09/11 13:39:13;;;;;;;5.35;4.85;;;;;;;;;;613281;234;26685;-68
2022/09/11 13:41:43;;;;;;;5.22;4.72;;;;;;;;;;613706;233;26854;-68
2022/09/11 13:44:12;;;;;;;5.28;4.78;;;;;;;;;;613915;234;26594;-67
2022/09/11 13:46:51;;;;;;;5.40;4.87;;;;;;;;;;612392;231;26853;-67
2022/09/11 13:49:20;;;;;;;5.47;4.68;;;;;;;;;;614438;233;26606;-67
2022/09/11 13:51:49;;;;;;;4.85;4.45;;;;;;;;;;613679;233;26803;-68
2022/09/11 13:54:18;;;;;;;5.25;4.62;;;;;;;;;;614324;233;26586;-67
2022/09/11 13:56:53;;;;;;;6.07;4.43;;;;;;;;;;614233;233;26571;-67
2022/09/11 13:59:26;;;;;;;5.07;4.60;;;;;;;;;;614965;233;26579;-63
2022/09/11 14:01:55;;;;;;;5.47;4.72;;;;;;;;;;612889;233;26608;-66
2022/09/11 14:04:26;;;;;;;5.10;4.60;;;;;;;;;;613493;233;26846;-66
2022/09/11 14:06:52;;;;;;;4.53;4.12;;;;;;;;;;614259;233;26525;-66
2022/09/11 14:09:21;;;;;;;4.90;4.50;;;;;;;;;;614291;232;26600;-66
2022/09/11 14:11:51;;;;;;;5.47;4.57;;;;;;;;;;613669;233;26863;-62
2022/09/11 14:14:19;;;;;;;4.75;4.03;;;;;;;;;;612760;233;26555;-62
2022/09/11 14:16:51;;;;;;;4.62;4.03;;;;;;;;;;612963;228;26560;-62
2022/09/11 14:19:20;;;;;;;4.93;3.83;;;;;;;;;;613410;233;26551;-63
2022/09/11 14:21:50;;;;;;;4.32;3.92;;;;;;;;;;613009;233;26690;-63
2022/09/11 14:24:31;;;;;;;5.82;3.75;;;;;;;;;;613856;233;26601;-63
2022/09/11 14:27:00;;;;;;;4.10;3.62;;;;;;;;;;612622;234;26623;-63
2022/09/11 14:29:30;;;;;;;3.50;3.30;;;;;;;;;;613897;234;26562;-62
2022/09/11 14:32:04;;;;;;;3.60;3.00;;;;;;;;;;614192;234;26607;-62
2022/09/11 14:34:33;;;;;;;3.62;3.12;;;;;;;;;;612484;234;26952;-62
2022/09/11 14:37:02;;;;;;;3.22;3.00;;;;;;;;;;613315;234;26568;-63
2022/09/11 14:42:12;;;;;;;3.40;3.10;;;;;;;;;;614315;234;26617;-62
2022/09/11 14:44:41;;;;;;;3.22;2.50;;;;;;;;;;612766;234;26554;-62
2022/09/11 14:47:16;;;;;;;3.20;2.90;;;;;;;;;;614779;234;26575;-61
2022/09/11 14:49:44;;;;;;;2.97;2.80;;;;;;;;;;612534;234;26839;-62
2022/09/11 14:52:13;;;;;;;10.70;5.45;;;;;;;;;;612686;234;27299;-62
2022/09/11 14:54:42;;;;;;;16.27;9.25;;;;;;;;;;613447;234;26575;-62
2022/09/11 14:57:12;;;;;;;9.50;6.28;;;;;;;;;;613493;234;26817;-62
2022/09/11 14:59:40;;;;;;;8.40;5.07;;;;;;;;;;614655;231;26608;-62
2022/09/11 15:02:10;;;;;;;4.28;3.17;;;;;;;;;;614701;228;26699;-63
2022/09/11 15:04:38;;;;;;;3.92;3.55;;;;;;;;;;614754;233;26628;-62
2022/09/11 15:07:09;;;;;;;3.60;2.95;;;;;;;;;;614504;233;26566;-63